sensor_id;sensor_type;location;lat;lon;timestamp;pressure;altitude;pressure_sealevel;temperature;humidity
29909;BME280;36247;51.952;6.146;2024-02-21T00:01:47;102098.03;;;8.87;100.00
29909;BME280;36247;51.952;6.146;2024-02-21T00:04:12;102103.13;;;8.82;100.00
29909;BME280;36247;51.952;6.146;2024-02-21T00:06:37;102093.59;;;8.86;100.00
29909;BME280;36247;51.952;6.146;2024-02-21T00:09:03;102092.00;;;8.90;100.00
29909;BME280;36247;51.952;6.146;2024-02-21T00:11:28;102090.81;;;8.83;100.00
29909;BME280;36247;51.952;6.146;2024-02-21T00:13:54;102090.00;;;8.84;100.00
29909;BME280;36247;51.952;6.146;2024-02-21T00:16:19;102082.38;;;8.92;100.00
29909;BME280;36247;51.952;6.146;2024-02-21T00:18:45;102082.06;;;8.84;100.00
29909;BME280;36247;51.952;6.146;2024-02-21T00:21:10;102079.22;;;8.79;100.00
29909;BME280;36247;51.952;6.146;2024-02-21T00:23:40;102077.59;;;8.83;100.00
29909;BME280;36247;51.952;6.146;2024-02-21T00:26:06;102069.56;;;8.80;100.00
29909;BME280;36247;51.952;6.146;2024-02-21T00:28:32;102091.41;;;8.76;100.00
29909;BME280;36247;51.952;6.146;2024-02-21T00:30:58;102083.84;;;8.85;100.00
29909;BME280;36247;51.952;6.146;2024-02-21T00:33:23;102067.75;;;8.79;100.00
29909;BME280;36247;51.952;6.146;2024-02-21T00:35:49;102058.94;;;8.78;100.00
29909;BME280;36247;51.952;6.146;2024-02-21T00:38:15;102066.78;;;8.77;100.00
29909;BME280;36247;51.952;6.146;2024-02-21T00:40:40;102064.22;;;8.78;100.00
29909;BME280;36247;51.952;6.146;2024-02-21T00:43:06;102068.66;;;8.79;100.00
29909;BME280;36247;51.952;6.146;2024-02-21T00:45:31;102058.97;;;8.80;100.00
29909;BME280;36247;51.952;6.146;2024-02-21T00:47:56;102053.69;;;8.80;100.00
29909;BME280;36247;51.952;6.146;2024-02-21T00:50:22;102053.56;;;8.77;100.00
29909;BME280;36247;51.952;6.146;2024-02-21T00:52:47;102058.03;;;8.78;100.00
29909;BME280;36247;51.952;6.146;2024-02-21T00:55:14;102048.41;;;8.80;100.00
29909;BME280;36247;51.952;6.146;2024-02-21T00:57:39;102046.72;;;8.82;100.00
29909;BME280;36247;51.952;6.146;2024-02-21T01:00:05;102034.38;;;8.81;100.00
29909;BME280;36247;51.952;6.146;2024-02-21T01:02:30;102037.72;;;8.77;100.00
29909;BME280;36247;51.952;6.146;2024-02-21T01:05:00;102044.75;;;8.76;100.00
29909;BME280;36247;51.952;6.146;2024-02-21T01:07:25;102019.28;;;8.78;100.00
29909;BME280;36247;51.952;6.146;2024-02-21T01:09:51;102018.56;;;8.82;100.00
29909;BME280;36247;51.952;6.146;2024-02-21T01:12:16;102024.50;;;8.77;100.00
29909;BME280;36247;51.952;6.146;2024-02-21T01:14:42;102023.41;;;8.72;100.00
29909;BME280;36247;51.952;6.146;2024-02-21T01:17:07;102026.97;;;8.72;100.00
29909;BME280;36247;51.952;6.146;2024-02-21T01:19:32;102024.16;;;8.68;100.00
29909;BME280;36247;51.952;6.146;2024-02-21T01:21:58;102006.53;;;8.68;100.00
29909;BME280;36247;51.952;6.146;2024-02-21T01:24:23;102012.78;;;8.70;100.00
29909;BME280;36247;51.952;6.146;2024-02-21T01:26:49;102018.00;;;8.69;100.00
29909;BME280;36247;51.952;6.146;2024-02-21T01:29:15;102002.28;;;8.72;100.00
29909;BME280;36247;51.952;6.146;2024-02-21T01:31:40;102001.56;;;8.76;100.00
29909;BME280;36247;51.952;6.146;2024-02-21T01:34:05;102012.84;;;8.72;100.00
29909;BME280;36247;51.952;6.146;2024-02-21T01:36:31;102007.72;;;8.75;100.00
29909;BME280;36247;51.952;6.146;2024-02-21T01:38:56;102012.00;;;8.73;100.00
29909;BME280;36247;51.952;6.146;2024-02-21T01:41:22;102004.25;;;8.77;100.00
29909;BME280;36247;51.952;6.146;2024-02-21T01:43:47;101993.03;;;8.83;100.00
29909;BME280;36247;51.952;6.146;2024-02-21T01:46:12;102001.56;;;8.76;100.00
29909;BME280;36247;51.952;6.146;2024-02-21T01:48:38;102014.91;;;8.79;100.00
29909;BME280;36247;51.952;6.146;2024-02-21T01:51:04;102014.06;;;8.80;100.00
29909;BME280;36247;51.952;6.146;2024-02-21T01:53:32;102019.47;;;8.83;100.00
29909;BME280;36247;51.952;6.146;2024-02-21T01:55:59;102003.63;;;8.83;100.00
29909;BME280;36247;51.952;6.146;2024-02-21T01:58:26;101994.09;;;8.88;100.00
29909;BME280;36247;51.952;6.146;2024-02-21T02:00:53;101992.97;;;8.81;100.00
29909;BME280;36247;51.952;6.146;2024-02-21T02:03:21;101993.03;;;8.83;100.00
29909;BME280;36247;51.952;6.146;2024-02-21T02:05:48;101989.81;;;8.90;100.00
29909;BME280;36247;51.952;6.146;2024-02-21T02:08:18;101990.28;;;8.80;100.00
29909;BME280;36247;51.952;6.146;2024-02-21T02:10:44;101982.47;;;8.83;100.00
29909;BME280;36247;51.952;6.146;2024-02-21T02:13:11;101979.06;;;8.86;100.00
29909;BME280;36247;51.952;6.146;2024-02-21T02:15:43;101963.97;;;8.83;100.00
29909;BME280;36247;51.952;6.146;2024-02-21T02:18:09;101966.75;;;8.86;100.00
29909;BME280;36247;51.952;6.146;2024-02-21T02:20:35;101963.16;;;8.84;100.00
29909;BME280;36247;51.952;6.146;2024-02-21T02:23:11;101959.53;;;8.82;100.00
29909;BME280;36247;51.952;6.146;2024-02-21T02:25:38;101953.41;;;8.83;100.00
29909;BME280;36247;51.952;6.146;2024-02-21T02:28:08;101959.16;;;8.95;100.00
29909;BME280;36247;51.952;6.146;2024-02-21T02:30:36;101956.22;;;8.88;100.00
29909;BME280;36247;51.952;6.146;2024-02-21T02:33:05;101955.34;;;8.87;100.00
29909;BME280;36247;51.952;6.146;2024-02-21T02:35:31;101954.25;;;8.82;100.00
29909;BME280;36247;51.952;6.146;2024-02-21T02:37:57;101956.81;;;8.80;100.00
29909;BME280;36247;51.952;6.146;2024-02-21T02:40:23;101947.22;;;8.82;100.00
29909;BME280;36247;51.952;6.146;2024-02-21T02:42:49;101942.94;;;8.86;100.00
29909;BME280;36247;51.952;6.146;2024-02-21T02:45:18;101939.41;;;8.86;100.00
29909;BME280;36247;51.952;6.146;2024-02-21T02:47:47;101940.91;;;8.79;100.00
29909;BME280;36247;51.952;6.146;2024-02-21T02:50:12;101922.84;;;8.90;100.00
29909;BME280;36247;51.952;6.146;2024-02-21T02:52:38;101924.16;;;8.78;100.00
29909;BME280;36247;51.952;6.146;2024-02-21T02:55:04;101914.91;;;8.90;100.00
29909;BME280;36247;51.952;6.146;2024-02-21T02:57:30;101917.25;;;8.82;100.00
29909;BME280;36247;51.952;6.146;2024-02-21T02:59:55;101920.88;;;8.84;100.00
29909;BME280;36247;51.952;6.146;2024-02-21T03:02:21;101923.50;;;8.84;100.00
29909;BME280;36247;51.952;6.146;2024-02-21T03:04:46;101932.22;;;8.81;100.00
29909;BME280;36247;51.952;6.146;2024-02-21T03:07:11;101928.78;;;8.84;100.00
29909;BME280;36247;51.952;6.146;2024-02-21T03:09:38;101925.28;;;8.85;100.00
29909;BME280;36247;51.952;6.146;2024-02-21T03:12:04;101919.81;;;8.80;100.00
29909;BME280;36247;51.952;6.146;2024-02-21T03:14:30;101919.00;;;8.81;100.00
29909;BME280;36247;51.952;6.146;2024-02-21T03:16:56;101913.06;;;8.87;100.00
29909;BME280;36247;51.952;6.146;2024-02-21T03:19:21;101905.63;;;8.77;100.00
29909;BME280;36247;51.952;6.146;2024-02-21T03:21:48;101910.91;;;8.77;100.00
29909;BME280;36247;51.952;6.146;2024-02-21T03:24:15;101917.25;;;8.82;100.00
29909;BME280;36247;51.952;6.146;2024-02-21T03:26:40;101903.84;;;8.77;100.00
29909;BME280;36247;51.952;6.146;2024-02-21T03:29:05;101897.91;;;8.83;100.00
29909;BME280;36247;51.952;6.146;2024-02-21T03:31:31;101898.91;;;8.87;100.00
29909;BME280;36247;51.952;6.146;2024-02-21T03:33:56;101900.44;;;8.80;100.00
29909;BME280;36247;51.952;6.146;2024-02-21T03:36:22;101899.66;;;8.82;100.00
29909;BME280;36247;51.952;6.146;2024-02-21T03:38:47;101899.13;;;8.91;100.00
29909;BME280;36247;51.952;6.146;2024-02-21T03:41:13;101897.31;;;8.90;100.00
29909;BME280;36247;51.952;6.146;2024-02-21T03:43:38;101909.63;;;8.90;100.00
29909;BME280;36247;51.952;6.146;2024-02-21T03:46:04;101895.34;;;8.85;100.00
29909;BME280;36247;51.952;6.146;2024-02-21T03:48:29;101892.69;;;8.85;100.00
29909;BME280;36247;51.952;6.146;2024-02-21T03:50:55;101885.84;;;8.90;100.00
29909;BME280;36247;51.952;6.146;2024-02-21T03:53:20;101879.41;;;8.83;100.00
29909;BME280;36247;51.952;6.146;2024-02-21T03:55:45;101879.69;;;8.91;100.00
29909;BME280;36247;51.952;6.146;2024-02-21T03:58:11;101871.66;;;8.88;100.00
29909;BME280;36247;51.952;6.146;2024-02-21T04:00:36;101876.00;;;8.86;100.00
29909;BME280;36247;51.952;6.146;2024-02-21T04:03:02;101869.84;;;8.87;100.00
29909;BME280;36247;51.952;6.146;2024-02-21T04:05:28;101874.34;;;8.89;100.00
29909;BME280;36247;51.952;6.146;2024-02-21T04:07:53;101883.66;;;8.78;100.00
29909;BME280;36247;51.952;6.146;2024-02-21T04:10:19;101881.34;;;8.87;100.00
29909;BME280;36247;51.952;6.146;2024-02-21T04:12:44;101878.59;;;8.84;100.00
29909;BME280;36247;51.952;6.146;2024-02-21T04:15:09;101874.13;;;8.83;100.00
29909;BME280;36247;51.952;6.146;2024-02-21T04:17:36;101864.41;;;8.82;100.00
29909;BME280;36247;51.952;6.146;2024-02-21T04:20:04;101863.50;;;8.81;100.00
29909;BME280;36247;51.952;6.146;2024-02-21T04:22:31;101864.34;;;8.80;100.00
29909;BME280;36247;51.952;6.146;2024-02-21T04:24:59;101868.84;;;8.83;100.00
29909;BME280;36247;51.952;6.146;2024-02-21T04:27:24;101870.78;;;8.87;100.00
29909;BME280;36247;51.952;6.146;2024-02-21T04:29:50;101868.03;;;8.84;100.00
29909;BME280;36247;51.952;6.146;2024-02-21T04:32:15;101868.69;;;8.78;100.00
29909;BME280;36247;51.952;6.146;2024-02-21T04:34:41;101863.50;;;8.81;100.00
29909;BME280;36247;51.952;6.146;2024-02-21T04:37:06;101848.53;;;8.82;100.00
29909;BME280;36247;51.952;6.146;2024-02-21T04:39:32;101853.81;;;8.82;100.00
29909;BME280;36247;51.952;6.146;2024-02-21T04:41:57;101857.34;;;8.81;100.00
29909;BME280;36247;51.952;6.146;2024-02-21T04:44:23;101862.56;;;8.79;100.00
29909;BME280;36247;51.952;6.146;2024-02-21T04:46:48;101854.81;;;8.84;100.00
29909;BME280;36247;51.952;6.146;2024-02-21T04:49:14;101857.44;;;8.84;100.00
29909;BME280;36247;51.952;6.146;2024-02-21T04:51:40;101852.94;;;8.81;100.00
29909;BME280;36247;51.952;6.146;2024-02-21T04:54:06;101843.31;;;8.83;100.00
29909;BME280;36247;51.952;6.146;2024-02-21T04:56:31;101847.59;;;8.80;100.00
29909;BME280;36247;51.952;6.146;2024-02-21T04:58:57;101845.91;;;8.82;100.00
29909;BME280;36247;51.952;6.146;2024-02-21T05:01:22;101842.38;;;8.81;100.00
29909;BME280;36247;51.952;6.146;2024-02-21T05:03:48;101840.72;;;8.85;100.00
29909;BME280;36247;51.952;6.146;2024-02-21T05:06:13;101836.97;;;8.78;100.00
29909;BME280;36247;51.952;6.146;2024-02-21T05:08:40;101824.97;;;8.88;100.00
29909;BME280;36247;51.952;6.146;2024-02-21T05:11:05;101817.69;;;8.81;100.00
29909;BME280;36247;51.952;6.146;2024-02-21T05:13:31;101825.47;;;8.76;100.00
29909;BME280;36247;51.952;6.146;2024-02-21T05:15:56;101819.16;;;8.73;100.00
29909;BME280;36247;51.952;6.146;2024-02-21T05:18:22;101818.19;;;8.71;100.00
29909;BME280;36247;51.952;6.146;2024-02-21T05:20:47;101813.03;;;8.74;100.00
29909;BME280;36247;51.952;6.146;2024-02-21T05:23:12;101814.63;;;8.70;100.00
29909;BME280;36247;51.952;6.146;2024-02-21T05:25:38;101812.81;;;8.68;100.00
29909;BME280;36247;51.952;6.146;2024-02-21T05:28:03;101817.53;;;8.76;100.00
29909;BME280;36247;51.952;6.146;2024-02-21T05:30:31;101811.53;;;8.82;100.00
29909;BME280;36247;51.952;6.146;2024-02-21T05:32:56;101819.47;;;8.82;100.00
29909;BME280;36247;51.952;6.146;2024-02-21T05:35:26;101816.66;;;8.77;100.00
29909;BME280;36247;51.952;6.146;2024-02-21T05:37:52;101810.38;;;8.74;100.00
29909;BME280;36247;51.952;6.146;2024-02-21T05:40:18;101804.22;;;8.73;100.00
29909;BME280;36247;51.952;6.146;2024-02-21T05:42:43;101800.88;;;8.79;100.00
29909;BME280;36247;51.952;6.146;2024-02-21T05:45:09;101799.09;;;8.78;100.00
29909;BME280;36247;51.952;6.146;2024-02-21T05:47:34;101795.31;;;8.71;100.00
29909;BME280;36247;51.952;6.146;2024-02-21T05:50:00;101793.88;;;8.79;100.00
29909;BME280;36247;51.952;6.146;2024-02-21T05:52:25;101789.25;;;8.74;100.00
29909;BME280;36247;51.952;6.146;2024-02-21T05:54:50;101788.28;;;8.72;100.00
29909;BME280;36247;51.952;6.146;2024-02-21T05:57:17;101773.41;;;8.74;100.00
29909;BME280;36247;51.952;6.146;2024-02-21T05:59:43;101766.34;;;8.74;100.00
29909;BME280;36247;51.952;6.146;2024-02-21T06:02:09;101763.81;;;8.77;100.00
29909;BME280;36247;51.952;6.146;2024-02-21T06:04:35;101765.47;;;8.74;100.00
29909;BME280;36247;51.952;6.146;2024-02-21T06:07:00;101754.19;;;8.78;100.00
29909;BME280;36247;51.952;6.146;2024-02-21T06:09:26;101743.59;;;8.78;100.00
29909;BME280;36247;51.952;6.146;2024-02-21T06:11:51;101747.88;;;8.74;100.00
29909;BME280;36247;51.952;6.146;2024-02-21T06:14:17;101753.94;;;8.72;100.00
29909;BME280;36247;51.952;6.146;2024-02-21T06:16:44;101750.56;;;8.76;100.00
29909;BME280;36247;51.952;6.146;2024-02-21T06:19:09;101750.34;;;8.70;100.00
29909;BME280;36247;51.952;6.146;2024-02-21T06:21:35;101741.53;;;8.69;100.00
29909;BME280;36247;51.952;6.146;2024-02-21T06:24:00;101741.38;;;8.64;100.00
29909;BME280;36247;51.952;6.146;2024-02-21T06:26:25;101736.97;;;8.65;100.00
29909;BME280;36247;51.952;6.146;2024-02-21T06:28:51;101731.13;;;8.74;100.00
29909;BME280;36247;51.952;6.146;2024-02-21T06:31:16;101737.19;;;8.71;100.00
29909;BME280;36247;51.952;6.146;2024-02-21T06:33:43;101735.22;;;8.65;100.00
29909;BME280;36247;51.952;6.146;2024-02-21T06:36:08;101735.31;;;8.69;100.00
29909;BME280;36247;51.952;6.146;2024-02-21T06:38:33;101733.34;;;8.61;100.00
29909;BME280;36247;51.952;6.146;2024-02-21T06:40:59;101730.91;;;8.68;100.00
29909;BME280;36247;51.952;6.146;2024-02-21T06:43:26;101739.56;;;8.63;100.00
29909;BME280;36247;51.952;6.146;2024-02-21T06:45:51;101735.22;;;8.65;100.00
29909;BME280;36247;51.952;6.146;2024-02-21T06:48:17;101733.59;;;8.69;100.00
29909;BME280;36247;51.952;6.146;2024-02-21T06:50:44;101731.78;;;8.68;100.00
29909;BME280;36247;51.952;6.146;2024-02-21T06:53:09;101734.16;;;8.60;100.00
29909;BME280;36247;51.952;6.146;2024-02-21T06:55:35;101735.22;;;8.65;100.00
29909;BME280;36247;51.952;6.146;2024-02-21T06:58:00;101737.91;;;8.67;100.00
29909;BME280;36247;51.952;6.146;2024-02-21T07:00:30;101731.84;;;8.70;100.00
29909;BME280;36247;51.952;6.146;2024-02-21T07:02:56;101730.50;;;8.57;100.00
29909;BME280;36247;51.952;6.146;2024-02-21T07:05:21;101736.13;;;8.66;100.00
29909;BME280;36247;51.952;6.146;2024-02-21T07:07:47;101735.88;;;8.58;100.00
29909;BME280;36247;51.952;6.146;2024-02-21T07:10:12;101725.53;;;8.64;100.00
29909;BME280;36247;51.952;6.146;2024-02-21T07:12:38;101734.16;;;8.60;100.00
29909;BME280;36247;51.952;6.146;2024-02-21T07:15:07;101718.31;;;8.60;100.00
29909;BME280;36247;51.952;6.146;2024-02-21T07:17:32;101722.66;;;8.58;100.00
29909;BME280;36247;51.952;6.146;2024-02-21T07:19:58;101709.72;;;8.66;100.00
29909;BME280;36247;51.952;6.146;2024-02-21T07:22:24;101708.06;;;8.70;100.00
29909;BME280;36247;51.952;6.146;2024-02-21T07:24:50;101715.06;;;8.68;100.00
29909;BME280;36247;51.952;6.146;2024-02-21T07:27:15;101709.00;;;8.72;100.00
29909;BME280;36247;51.952;6.146;2024-02-21T07:29:41;101703.72;;;8.72;100.00
29909;BME280;36247;51.952;6.146;2024-02-21T07:32:06;101702.06;;;8.74;100.00
29909;BME280;36247;51.952;6.146;2024-02-21T07:34:32;101708.91;;;8.69;100.00
29909;BME280;36247;51.952;6.146;2024-02-21T07:36:57;101698.44;;;8.72;100.00
29909;BME280;36247;51.952;6.146;2024-02-21T07:39:23;101707.09;;;8.66;100.00
29909;BME280;36247;51.952;6.146;2024-02-21T07:41:48;101700.03;;;8.67;100.00
29909;BME280;36247;51.952;6.146;2024-02-21T07:44:15;101691.28;;;8.68;100.00
29909;BME280;36247;51.952;6.146;2024-02-21T07:46:40;101692.28;;;8.71;100.00
29909;BME280;36247;51.952;6.146;2024-02-21T07:49:06;101682.78;;;8.76;100.00
29909;BME280;36247;51.952;6.146;2024-02-21T07:51:31;101680.19;;;8.78;100.00
29909;BME280;36247;51.952;6.146;2024-02-21T07:53:57;101674.03;;;8.79;100.00
29909;BME280;36247;51.952;6.146;2024-02-21T07:56:22;101677.31;;;8.72;100.00
29909;BME280;36247;51.952;6.146;2024-02-21T07:58:48;101668.03;;;8.83;100.00
29909;BME280;36247;51.952;6.146;2024-02-21T08:01:18;101662.94;;;8.89;100.00
29909;BME280;36247;51.952;6.146;2024-02-21T08:03:46;101659.47;;;8.90;100.00
29909;BME280;36247;51.952;6.146;2024-02-21T08:06:14;101649.88;;;8.94;100.00
29909;BME280;36247;51.952;6.146;2024-02-21T08:08:40;101642.84;;;8.93;100.00
29909;BME280;36247;51.952;6.146;2024-02-21T08:11:05;101631.53;;;8.98;100.00
29909;BME280;36247;51.952;6.146;2024-02-21T08:13:31;101628.53;;;8.88;100.00
29909;BME280;36247;51.952;6.146;2024-02-21T08:15:56;101628.91;;;8.98;100.00
29909;BME280;36247;51.952;6.146;2024-02-21T08:18:22;101631.97;;;9.11;100.00
29909;BME280;36247;51.952;6.146;2024-02-21T08:20:48;101620.88;;;8.95;100.00
29909;BME280;36247;51.952;6.146;2024-02-21T08:23:16;101620.53;;;9.12;100.00
29909;BME280;36247;51.952;6.146;2024-02-21T08:25:41;101622.41;;;9.16;100.00
29909;BME280;36247;51.952;6.146;2024-02-21T08:28:07;101628.34;;;9.09;100.00
29909;BME280;36247;51.952;6.146;2024-02-21T08:30:33;101628.53;;;9.15;100.00
29909;BME280;36247;51.952;6.146;2024-02-21T08:32:59;101630.25;;;9.13;100.00
29909;BME280;36247;51.952;6.146;2024-02-21T08:35:25;101612.69;;;9.15;100.00
29909;BME280;36247;51.952;6.146;2024-02-21T08:37:50;101612.72;;;9.16;100.00
29909;BME280;36247;51.952;6.146;2024-02-21T08:40:16;101602.44;;;9.24;100.00
29909;BME280;36247;51.952;6.146;2024-02-21T08:42:46;101601.47;;;9.22;100.00
29909;BME280;36247;51.952;6.146;2024-02-21T08:45:13;101613.19;;;9.30;100.00
29909;BME280;36247;51.952;6.146;2024-02-21T08:47:41;101602.63;;;9.30;100.00
29909;BME280;36247;51.952;6.146;2024-02-21T08:50:08;101604.97;;;9.21;100.00
29909;BME280;36247;51.952;6.146;2024-02-21T08:52:35;101588.47;;;9.30;100.00
29909;BME280;36247;51.952;6.146;2024-02-21T08:55:01;101586.56;;;9.24;100.00
29909;BME280;36247;51.952;6.146;2024-02-21T08:57:27;101592.97;;;9.32;100.00
29909;BME280;36247;51.952;6.146;2024-02-21T08:59:52;101592.13;;;9.33;100.00
29909;BME280;36247;51.952;6.146;2024-02-21T09:02:17;101583.28;;;9.33;100.00
29909;BME280;36247;51.952;6.146;2024-02-21T09:04:43;101576.72;;;9.20;100.00
29909;BME280;36247;51.952;6.146;2024-02-21T09:07:11;101570.00;;;9.31;100.00
29909;BME280;36247;51.952;6.146;2024-02-21T09:09:37;101569.00;;;9.26;100.00
29909;BME280;36247;51.952;6.146;2024-02-21T09:12:06;101563.97;;;9.35;100.00
29909;BME280;36247;51.952;6.146;2024-02-21T09:14:32;101566.47;;;9.31;100.00
29909;BME280;36247;51.952;6.146;2024-02-21T09:16:58;101556.84;;;9.33;100.00
29909;BME280;36247;51.952;6.146;2024-02-21T09:19:23;101563.31;;;9.43;100.00
29909;BME280;36247;51.952;6.146;2024-02-21T09:21:49;101569.63;;;9.48;100.00
29909;BME280;36247;51.952;6.146;2024-02-21T09:24:14;101560.94;;;9.52;100.00
29909;BME280;36247;51.952;6.146;2024-02-21T09:26:40;101575.97;;;9.53;100.00
29909;BME280;36247;51.952;6.146;2024-02-21T09:29:05;101573.97;;;9.46;100.00
29909;BME280;36247;51.952;6.146;2024-02-21T09:31:31;101566.00;;;9.44;100.00
29909;BME280;36247;51.952;6.146;2024-02-21T09:33:56;101574.81;;;9.45;100.00
29909;BME280;36247;51.952;6.146;2024-02-21T09:36:21;101562.75;;;9.53;100.00
29909;BME280;36247;51.952;6.146;2024-02-21T09:38:47;101554.81;;;9.53;100.00
29909;BME280;36247;51.952;6.146;2024-02-21T09:41:17;101548.63;;;9.52;100.00
29909;BME280;36247;51.952;6.146;2024-02-21T09:43:43;101549.72;;;9.61;100.00
29909;BME280;36247;51.952;6.146;2024-02-21T09:46:16;101547.41;;;9.71;100.00
29909;BME280;36247;51.952;6.146;2024-02-21T09:48:53;101540.03;;;9.61;100.00
29909;BME280;36247;51.952;6.146;2024-02-21T09:51:23;101535.50;;;9.56;100.00
29909;BME280;36247;51.952;6.146;2024-02-21T09:53:50;101526.94;;;9.64;100.00
29909;BME280;36247;51.952;6.146;2024-02-21T09:56:16;101525.38;;;9.73;100.00
29909;BME280;36247;51.952;6.146;2024-02-21T09:58:42;101531.50;;;9.71;100.00
29909;BME280;36247;51.952;6.146;2024-02-21T10:01:07;101524.53;;;9.74;100.00
29909;BME280;36247;51.952;6.146;2024-02-21T10:03:34;101515.75;;;9.76;100.00
29909;BME280;36247;51.952;6.146;2024-02-21T10:05:59;101518.38;;;9.75;100.00
29909;BME280;36247;51.952;6.146;2024-02-21T10:08:26;101507.94;;;9.79;100.00
29909;BME280;36247;51.952;6.146;2024-02-21T10:10:52;101508.66;;;9.74;100.00
29909;BME280;36247;51.952;6.146;2024-02-21T10:13:28;101507.09;;;9.82;100.00
29909;BME280;36247;51.952;6.146;2024-02-21T10:16:04;101508.41;;;9.64;100.00
29909;BME280;36247;51.952;6.146;2024-02-21T10:18:30;101502.41;;;9.71;100.00
29909;BME280;36247;51.952;6.146;2024-02-21T10:21:02;101479.69;;;9.78;100.00
29909;BME280;36247;51.952;6.146;2024-02-21T10:23:29;101487.13;;;9.61;100.00
29909;BME280;36247;51.952;6.146;2024-02-21T10:25:54;101477.75;;;9.73;100.00
29909;BME280;36247;51.952;6.146;2024-02-21T10:28:29;101459.06;;;9.66;100.00
29909;BME280;36247;51.952;6.146;2024-02-21T10:30:54;101465.88;;;9.58;100.00
29909;BME280;36247;51.952;6.146;2024-02-21T10:33:20;101457.69;;;9.49;100.00
29909;BME280;36247;51.952;6.146;2024-02-21T10:35:46;101445.50;;;9.54;100.00
29909;BME280;36247;51.952;6.146;2024-02-21T10:38:12;101444.19;;;9.71;100.00
29909;BME280;36247;51.952;6.146;2024-02-21T10:40:38;101439.72;;;9.37;100.00
29909;BME280;36247;51.952;6.146;2024-02-21T10:43:05;101439.44;;;9.26;100.00
29909;BME280;36247;51.952;6.146;2024-02-21T10:45:34;101440.00;;;9.16;100.00
29909;BME280;36247;51.952;6.146;2024-02-21T10:48:08;101435.16;;;9.31;100.00
29909;BME280;36247;51.952;6.146;2024-02-21T10:50:58;101423.81;;;9.35;100.00
29909;BME280;36247;51.952;6.146;2024-02-21T10:58:49;101407.56;;;9.22;100.00
29909;BME280;36247;51.952;6.146;2024-02-21T11:01:16;101399.53;;;9.17;100.00
29909;BME280;36247;51.952;6.146;2024-02-21T11:03:47;101397.34;;;9.34;100.00
29909;BME280;36247;51.952;6.146;2024-02-21T11:06:15;101390.25;;;9.33;100.00
29909;BME280;36247;51.952;6.146;2024-02-21T11:08:41;101384.41;;;9.45;100.00
29909;BME280;36247;51.952;6.146;2024-02-21T11:11:06;101381.19;;;9.57;100.00
29909;BME280;36247;51.952;6.146;2024-02-21T11:13:35;101376.03;;;9.61;100.00
29909;BME280;36247;51.952;6.146;2024-02-21T11:16:11;101375.94;;;9.58;100.00
29909;BME280;36247;51.952;6.146;2024-02-21T11:18:37;101364.34;;;9.53;100.00
29909;BME280;36247;51.952;6.146;2024-02-21T11:21:03;101347.06;;;9.66;100.00
29909;BME280;36247;51.952;6.146;2024-02-21T11:23:32;101326.28;;;9.81;100.00
29909;BME280;36247;51.952;6.146;2024-02-21T11:26:10;101307.94;;;9.89;100.00
29909;BME280;36247;51.952;6.146;2024-02-21T11:28:44;101276.06;;;9.84;100.00
29909;BME280;36247;51.952;6.146;2024-02-21T11:31:13;101271.47;;;9.77;100.00
29909;BME280;36247;51.952;6.146;2024-02-21T11:33:40;101274.44;;;9.91;100.00
29909;BME280;36247;51.952;6.146;2024-02-21T11:36:10;101283.53;;;10.02;100.00
29909;BME280;36247;51.952;6.146;2024-02-21T11:38:36;101282.81;;;10.08;100.00
29909;BME280;36247;51.952;6.146;2024-02-21T11:41:02;101290.56;;;10.00;100.00
29909;BME280;36247;51.952;6.146;2024-02-21T11:43:27;101261.63;;;10.08;100.00
29909;BME280;36247;51.952;6.146;2024-02-21T11:46:00;101297.50;;;9.95;100.00
29909;BME280;36247;51.952;6.146;2024-02-21T11:48:26;101301.28;;;9.70;100.00
29909;BME280;36247;51.952;6.146;2024-02-21T11:50:56;101295.56;;;9.88;100.00
29909;BME280;36247;51.952;6.146;2024-02-21T11:53:22;101279.59;;;9.85;100.00
29909;BME280;36247;51.952;6.146;2024-02-21T11:55:47;101284.00;;;9.84;100.00
29909;BME280;36247;51.952;6.146;2024-02-21T11:58:13;101266.34;;;9.83;100.00
29909;BME280;36247;51.952;6.146;2024-02-21T12:00:38;101247.63;;;9.76;100.00
29909;BME280;36247;51.952;6.146;2024-02-21T12:03:04;101241.50;;;9.77;100.00
29909;BME280;36247;51.952;6.146;2024-02-21T12:05:31;101253.63;;;9.68;100.00
29909;BME280;36247;51.952;6.146;2024-02-21T12:07:57;101281.88;;;9.69;100.00
29909;BME280;36247;51.952;6.146;2024-02-21T12:10:23;101266.00;;;9.69;100.00
29909;BME280;36247;51.952;6.146;2024-02-21T12:12:51;101266.00;;;9.69;100.00
29909;BME280;36247;51.952;6.146;2024-02-21T12:15:18;101254.69;;;9.75;100.00
29909;BME280;36247;51.952;6.146;2024-02-21T12:17:44;101250.13;;;9.69;100.00
29909;BME280;36247;51.952;6.146;2024-02-21T12:20:10;101245.84;;;9.75;100.00
29909;BME280;36247;51.952;6.146;2024-02-21T12:22:46;101236.44;;;9.87;100.00
29909;BME280;36247;51.952;6.146;2024-02-21T12:25:22;101226.59;;;9.82;100.00
29909;BME280;36247;51.952;6.146;2024-02-21T12:27:49;101204.13;;;10.02;100.00
29909;BME280;36247;51.952;6.146;2024-02-21T12:30:15;101203.38;;;10.08;100.00
29909;BME280;36247;51.952;6.146;2024-02-21T12:32:40;101182.88;;;9.98;100.00
29909;BME280;36247;51.952;6.146;2024-02-21T12:35:07;101175.13;;;10.07;100.00
29909;BME280;36247;51.952;6.146;2024-02-21T12:37:32;101156.03;;;10.23;100.00
29909;BME280;36247;51.952;6.146;2024-02-21T12:39:58;101132.69;;;10.45;100.00
29909;BME280;36247;51.952;6.146;2024-02-21T12:42:24;101135.97;;;10.82;100.00
29909;BME280;36247;51.952;6.146;2024-02-21T12:44:54;101113.31;;;11.00;100.00
29909;BME280;36247;51.952;6.146;2024-02-21T12:47:19;101114.09;;;10.94;100.00
29909;BME280;36247;51.952;6.146;2024-02-21T12:49:48;101111.97;;;10.73;100.00
29909;BME280;36247;51.952;6.146;2024-02-21T12:52:14;101108.38;;;10.69;100.00